sensor_id;sensor_type;location;lat;lon;timestamp;P1;durP1;ratioP1;P2;durP2;ratioP2
70825;SDS011;58446;41.490;22.098;2024-02-21T00:00:55;36.73;;;21.20;;
70825;SDS011;58446;41.490;22.098;2024-02-21T00:03:21;40.17;;;24.80;;
70825;SDS011;58446;41.490;22.098;2024-02-21T00:05:46;32.30;;;20.47;;
70825;SDS011;58446;41.490;22.098;2024-02-21T00:08:13;33.55;;;20.67;;
70825;SDS011;58446;41.490;22.098;2024-02-21T00:10:39;35.72;;;21.67;;
70825;SDS011;58446;41.490;22.098;2024-02-21T00:13:04;36.60;;;22.57;;
70825;SDS011;58446;41.490;22.098;2024-02-21T00:15:30;34.00;;;21.45;;
70825;SDS011;58446;41.490;22.098;2024-02-21T00:17:56;36.77;;;21.63;;
70825;SDS011;58446;41.490;22.098;2024-02-21T00:20:22;37.80;;;21.90;;
70825;SDS011;58446;41.490;22.098;2024-02-21T00:22:47;33.60;;;20.37;;
70825;SDS011;58446;41.490;22.098;2024-02-21T00:25:13;30.60;;;19.40;;
70825;SDS011;58446;41.490;22.098;2024-02-21T00:27:39;30.90;;;19.03;;
70825;SDS011;58446;41.490;22.098;2024-02-21T00:30:05;31.17;;;19.00;;
70825;SDS011;58446;41.490;22.098;2024-02-21T00:32:31;29.03;;;17.93;;
70825;SDS011;58446;41.490;22.098;2024-02-21T00:35:00;29.13;;;17.80;;
70825;SDS011;58446;41.490;22.098;2024-02-21T00:37:26;32.30;;;19.00;;
70825;SDS011;58446;41.490;22.098;2024-02-21T00:39:53;33.97;;;21.25;;
70825;SDS011;58446;41.490;22.098;2024-02-21T00:42:19;32.05;;;20.98;;
70825;SDS011;58446;41.490;22.098;2024-02-21T00:44:46;34.37;;;21.23;;
70825;SDS011;58446;41.490;22.098;2024-02-21T00:47:12;35.08;;;22.20;;
70825;SDS011;58446;41.490;22.098;2024-02-21T00:49:37;33.45;;;21.02;;
70825;SDS011;58446;41.490;22.098;2024-02-21T00:52:03;31.53;;;19.93;;
70825;SDS011;58446;41.490;22.098;2024-02-21T00:54:29;34.55;;;20.63;;
70825;SDS011;58446;41.490;22.098;2024-02-21T00:56:54;37.43;;;24.10;;
70825;SDS011;58446;41.490;22.098;2024-02-21T00:59:20;35.17;;;22.15;;
70825;SDS011;58446;41.490;22.098;2024-02-21T01:01:46;36.73;;;23.50;;
70825;SDS011;58446;41.490;22.098;2024-02-21T01:04:11;39.33;;;24.00;;
70825;SDS011;58446;41.490;22.098;2024-02-21T01:06:37;37.47;;;23.33;;
70825;SDS011;58446;41.490;22.098;2024-02-21T01:09:03;38.77;;;23.80;;
70825;SDS011;58446;41.490;22.098;2024-02-21T01:11:29;38.83;;;22.23;;
70825;SDS011;58446;41.490;22.098;2024-02-21T01:13:55;36.57;;;22.63;;
70825;SDS011;58446;41.490;22.098;2024-02-21T01:16:21;35.07;;;21.17;;
70825;SDS011;58446;41.490;22.098;2024-02-21T01:18:46;35.10;;;20.50;;
70825;SDS011;58446;41.490;22.098;2024-02-21T01:21:12;33.13;;;20.57;;
70825;SDS011;58446;41.490;22.098;2024-02-21T01:23:38;32.17;;;19.52;;
70825;SDS011;58446;41.490;22.098;2024-02-21T01:26:03;34.30;;;18.93;;
70825;SDS011;58446;41.490;22.098;2024-02-21T01:28:29;30.00;;;18.30;;
70825;SDS011;58446;41.490;22.098;2024-02-21T01:30:56;30.13;;;17.83;;
70825;SDS011;58446;41.490;22.098;2024-02-21T01:33:22;31.40;;;17.90;;
70825;SDS011;58446;41.490;22.098;2024-02-21T01:35:48;27.00;;;16.60;;
70825;SDS011;58446;41.490;22.098;2024-02-21T01:38:15;26.02;;;16.90;;
70825;SDS011;58446;41.490;22.098;2024-02-21T01:40:40;27.77;;;16.90;;
70825;SDS011;58446;41.490;22.098;2024-02-21T01:43:15;27.40;;;17.30;;
70825;SDS011;58446;41.490;22.098;2024-02-21T01:45:43;29.73;;;16.75;;
70825;SDS011;58446;41.490;22.098;2024-02-21T01:48:11;26.48;;;16.35;;
70825;SDS011;58446;41.490;22.098;2024-02-21T01:50:37;28.23;;;16.70;;
70825;SDS011;58446;41.490;22.098;2024-02-21T01:53:03;27.35;;;16.83;;
70825;SDS011;58446;41.490;22.098;2024-02-21T01:55:29;25.85;;;15.07;;
70825;SDS011;58446;41.490;22.098;2024-02-21T01:57:54;27.80;;;16.83;;
70825;SDS011;58446;41.490;22.098;2024-02-21T02:00:20;27.80;;;17.10;;
70825;SDS011;58446;41.490;22.098;2024-02-21T02:02:47;29.17;;;17.77;;
70825;SDS011;58446;41.490;22.098;2024-02-21T02:05:14;27.60;;;17.00;;
70825;SDS011;58446;41.490;22.098;2024-02-21T02:07:42;26.52;;;16.30;;
70825;SDS011;58446;41.490;22.098;2024-02-21T02:10:08;25.27;;;15.83;;
70825;SDS011;58446;41.490;22.098;2024-02-21T02:12:35;27.35;;;16.65;;
70825;SDS011;58446;41.490;22.098;2024-02-21T02:15:02;26.48;;;15.73;;
70825;SDS011;58446;41.490;22.098;2024-02-21T02:17:31;28.02;;;15.82;;
70825;SDS011;58446;41.490;22.098;2024-02-21T02:19:57;26.53;;;16.13;;
70825;SDS011;58446;41.490;22.098;2024-02-21T02:22:25;29.80;;;18.02;;
70825;SDS011;58446;41.490;22.098;2024-02-21T02:24:54;28.75;;;17.92;;
70825;SDS011;58446;41.490;22.098;2024-02-21T02:27:20;26.93;;;16.53;;
70825;SDS011;58446;41.490;22.098;2024-02-21T02:29:48;34.30;;;19.70;;
70825;SDS011;58446;41.490;22.098;2024-02-21T02:32:14;30.27;;;18.38;;
70825;SDS011;58446;41.490;22.098;2024-02-21T02:34:40;28.75;;;17.90;;
70825;SDS011;58446;41.490;22.098;2024-02-21T02:37:05;33.57;;;19.63;;
70825;SDS011;58446;41.490;22.098;2024-02-21T02:39:31;36.03;;;19.80;;
70825;SDS011;58446;41.490;22.098;2024-02-21T02:41:57;35.27;;;21.73;;
70825;SDS011;58446;41.490;22.098;2024-02-21T02:44:22;42.22;;;24.92;;
70825;SDS011;58446;41.490;22.098;2024-02-21T02:46:49;44.77;;;24.90;;
70825;SDS011;58446;41.490;22.098;2024-02-21T02:49:14;45.67;;;26.02;;
70825;SDS011;58446;41.490;22.098;2024-02-21T02:51:43;40.40;;;22.80;;
70825;SDS011;58446;41.490;22.098;2024-02-21T02:54:09;37.00;;;22.80;;
70825;SDS011;58446;41.490;22.098;2024-02-21T02:56:35;39.15;;;21.77;;
70825;SDS011;58446;41.490;22.098;2024-02-21T02:59:01;42.42;;;24.50;;
70825;SDS011;58446;41.490;22.098;2024-02-21T03:01:26;40.30;;;22.13;;
70825;SDS011;58446;41.490;22.098;2024-02-21T03:03:52;38.33;;;22.27;;
70825;SDS011;58446;41.490;22.098;2024-02-21T03:06:19;33.72;;;19.92;;
70825;SDS011;58446;41.490;22.098;2024-02-21T03:08:44;33.47;;;19.23;;
70825;SDS011;58446;41.490;22.098;2024-02-21T03:11:10;34.63;;;21.00;;
70825;SDS011;58446;41.490;22.098;2024-02-21T03:13:36;33.35;;;20.40;;
70825;SDS011;58446;41.490;22.098;2024-02-21T03:16:02;35.97;;;21.42;;
70825;SDS011;58446;41.490;22.098;2024-02-21T03:18:28;33.20;;;19.20;;
70825;SDS011;58446;41.490;22.098;2024-02-21T03:20:53;42.83;;;24.80;;
70825;SDS011;58446;41.490;22.098;2024-02-21T03:23:19;34.47;;;21.53;;
70825;SDS011;58446;41.490;22.098;2024-02-21T03:25:45;38.20;;;22.25;;
70825;SDS011;58446;41.490;22.098;2024-02-21T03:28:11;37.50;;;23.30;;
70825;SDS011;58446;41.490;22.098;2024-02-21T03:30:36;33.15;;;21.05;;
70825;SDS011;58446;41.490;22.098;2024-02-21T03:33:02;38.78;;;21.13;;
70825;SDS011;58446;41.490;22.098;2024-02-21T03:35:28;35.20;;;21.60;;
70825;SDS011;58446;41.490;22.098;2024-02-21T03:37:54;31.40;;;18.92;;
70825;SDS011;58446;41.490;22.098;2024-02-21T03:40:20;37.47;;;21.73;;
70825;SDS011;58446;41.490;22.098;2024-02-21T03:42:45;39.08;;;22.58;;
70825;SDS011;58446;41.490;22.098;2024-02-21T03:45:11;37.43;;;22.20;;
70825;SDS011;58446;41.490;22.098;2024-02-21T03:47:37;48.97;;;27.58;;
70825;SDS011;58446;41.490;22.098;2024-02-21T03:50:03;45.35;;;25.95;;
70825;SDS011;58446;41.490;22.098;2024-02-21T03:52:29;38.50;;;22.67;;
70825;SDS011;58446;41.490;22.098;2024-02-21T03:54:55;37.30;;;21.75;;
70825;SDS011;58446;41.490;22.098;2024-02-21T03:57:21;40.70;;;23.67;;
70825;SDS011;58446;41.490;22.098;2024-02-21T03:59:46;40.22;;;22.02;;
70825;SDS011;58446;41.490;22.098;2024-02-21T04:02:16;37.88;;;23.58;;
70825;SDS011;58446;41.490;22.098;2024-02-21T04:04:43;38.07;;;22.10;;
70825;SDS011;58446;41.490;22.098;2024-02-21T04:07:12;42.67;;;24.30;;
70825;SDS011;58446;41.490;22.098;2024-02-21T04:09:38;46.50;;;24.80;;
70825;SDS011;58446;41.490;22.098;2024-02-21T04:12:04;41.00;;;23.53;;
70825;SDS011;58446;41.490;22.098;2024-02-21T04:14:30;47.00;;;24.75;;
70825;SDS011;58446;41.490;22.098;2024-02-21T04:16:55;44.70;;;24.63;;
70825;SDS011;58446;41.490;22.098;2024-02-21T04:19:22;55.07;;;30.20;;
70825;SDS011;58446;41.490;22.098;2024-02-21T04:21:48;46.90;;;25.40;;
70825;SDS011;58446;41.490;22.098;2024-02-21T04:24:13;48.97;;;25.87;;
70825;SDS011;58446;41.490;22.098;2024-02-21T04:26:39;48.70;;;26.85;;
70825;SDS011;58446;41.490;22.098;2024-02-21T04:29:05;51.65;;;28.45;;
70825;SDS011;58446;41.490;22.098;2024-02-21T04:31:34;50.13;;;28.77;;
70825;SDS011;58446;41.490;22.098;2024-02-21T04:33:59;49.03;;;28.85;;
70825;SDS011;58446;41.490;22.098;2024-02-21T04:36:25;55.63;;;29.40;;
70825;SDS011;58446;41.490;22.098;2024-02-21T04:38:51;45.90;;;25.83;;
70825;SDS011;58446;41.490;22.098;2024-02-21T04:41:16;45.90;;;25.30;;
70825;SDS011;58446;41.490;22.098;2024-02-21T04:43:42;42.97;;;25.35;;
70825;SDS011;58446;41.490;22.098;2024-02-21T04:46:08;40.38;;;23.45;;
70825;SDS011;58446;41.490;22.098;2024-02-21T04:48:34;42.00;;;24.07;;
70825;SDS011;58446;41.490;22.098;2024-02-21T04:51:00;42.10;;;23.05;;
70825;SDS011;58446;41.490;22.098;2024-02-21T04:53:26;37.63;;;23.00;;
70825;SDS011;58446;41.490;22.098;2024-02-21T04:55:52;39.22;;;23.05;;
70825;SDS011;58446;41.490;22.098;2024-02-21T04:58:17;44.97;;;24.97;;
70825;SDS011;58446;41.490;22.098;2024-02-21T05:00:43;44.10;;;25.20;;
70825;SDS011;58446;41.490;22.098;2024-02-21T05:03:09;44.23;;;23.57;;
70825;SDS011;58446;41.490;22.098;2024-02-21T05:05:34;39.50;;;23.35;;
70825;SDS011;58446;41.490;22.098;2024-02-21T05:08:00;37.90;;;22.00;;
70825;SDS011;58446;41.490;22.098;2024-02-21T05:10:26;35.33;;;20.70;;
70825;SDS011;58446;41.490;22.098;2024-02-21T05:12:52;36.80;;;21.27;;
70825;SDS011;58446;41.490;22.098;2024-02-21T05:15:18;39.33;;;23.20;;
70825;SDS011;58446;41.490;22.098;2024-02-21T05:17:43;35.72;;;19.88;;
70825;SDS011;58446;41.490;22.098;2024-02-21T05:20:09;34.73;;;19.17;;
70825;SDS011;58446;41.490;22.098;2024-02-21T05:22:35;35.45;;;20.33;;
70825;SDS011;58446;41.490;22.098;2024-02-21T05:25:01;34.83;;;20.80;;
70825;SDS011;58446;41.490;22.098;2024-02-21T05:27:26;33.97;;;18.87;;
70825;SDS011;58446;41.490;22.098;2024-02-21T05:29:53;35.40;;;19.27;;
70825;SDS011;58446;41.490;22.098;2024-02-21T05:32:19;31.53;;;18.63;;
70825;SDS011;58446;41.490;22.098;2024-02-21T05:34:48;32.30;;;18.60;;
70825;SDS011;58446;41.490;22.098;2024-02-21T05:37:14;33.15;;;17.70;;
70825;SDS011;58446;41.490;22.098;2024-02-21T05:39:40;31.97;;;17.50;;
70825;SDS011;58446;41.490;22.098;2024-02-21T05:42:06;26.10;;;15.93;;
70825;SDS011;58446;41.490;22.098;2024-02-21T05:44:32;29.03;;;15.97;;
70825;SDS011;58446;41.490;22.098;2024-02-21T05:46:58;28.07;;;14.93;;
70825;SDS011;58446;41.490;22.098;2024-02-21T05:49:23;27.45;;;15.32;;
70825;SDS011;58446;41.490;22.098;2024-02-21T05:51:49;29.57;;;17.83;;
70825;SDS011;58446;41.490;22.098;2024-02-21T05:54:15;29.30;;;18.42;;
70825;SDS011;58446;41.490;22.098;2024-02-21T05:56:45;30.70;;;16.97;;
70825;SDS011;58446;41.490;22.098;2024-02-21T05:59:11;28.67;;;17.13;;
70825;SDS011;58446;41.490;22.098;2024-02-21T06:01:36;26.92;;;16.45;;
70825;SDS011;58446;41.490;22.098;2024-02-21T06:04:02;32.43;;;18.37;;
70825;SDS011;58446;41.490;22.098;2024-02-21T06:06:28;24.47;;;15.77;;
70825;SDS011;58446;41.490;22.098;2024-02-21T06:08:53;28.35;;;17.17;;
70825;SDS011;58446;41.490;22.098;2024-02-21T06:11:19;29.97;;;18.23;;
70825;SDS011;58446;41.490;22.098;2024-02-21T06:13:52;29.45;;;19.17;;
70825;SDS011;58446;41.490;22.098;2024-02-21T06:16:19;32.08;;;20.50;;
70825;SDS011;58446;41.490;22.098;2024-02-21T06:18:45;38.67;;;26.03;;
70825;SDS011;58446;41.490;22.098;2024-02-21T06:21:11;43.25;;;22.88;;
70825;SDS011;58446;41.490;22.098;2024-02-21T06:23:37;24.63;;;16.70;;
70825;SDS011;58446;41.490;22.098;2024-02-21T06:26:03;28.30;;;16.07;;
70825;SDS011;58446;41.490;22.098;2024-02-21T06:28:29;29.77;;;19.50;;
70825;SDS011;58446;41.490;22.098;2024-02-21T06:30:55;42.47;;;21.77;;
70825;SDS011;58446;41.490;22.098;2024-02-21T06:33:20;38.10;;;23.40;;
70825;SDS011;58446;41.490;22.098;2024-02-21T06:35:51;37.17;;;22.08;;
70825;SDS011;58446;41.490;22.098;2024-02-21T06:38:18;44.83;;;26.43;;
70825;SDS011;58446;41.490;22.098;2024-02-21T06:40:44;47.47;;;28.80;;
70825;SDS011;58446;41.490;22.098;2024-02-21T06:43:14;39.90;;;24.38;;
70825;SDS011;58446;41.490;22.098;2024-02-21T06:45:42;49.45;;;27.45;;
70825;SDS011;58446;41.490;22.098;2024-02-21T06:48:08;42.37;;;26.03;;
70825;SDS011;58446;41.490;22.098;2024-02-21T06:50:34;55.42;;;33.92;;
70825;SDS011;58446;41.490;22.098;2024-02-21T06:53:00;88.50;;;47.65;;
70825;SDS011;58446;41.490;22.098;2024-02-21T06:55:25;168.03;;;74.77;;
70825;SDS011;58446;41.490;22.098;2024-02-21T06:57:51;117.50;;;63.72;;
70825;SDS011;58446;41.490;22.098;2024-02-21T07:00:17;112.47;;;61.17;;
70825;SDS011;58446;41.490;22.098;2024-02-21T07:02:43;92.53;;;51.90;;
70825;SDS011;58446;41.490;22.098;2024-02-21T07:05:08;84.40;;;48.90;;
70825;SDS011;58446;41.490;22.098;2024-02-21T07:07:34;88.78;;;51.05;;
70825;SDS011;58446;41.490;22.098;2024-02-21T07:10:00;79.20;;;48.97;;
70825;SDS011;58446;41.490;22.098;2024-02-21T07:12:26;68.60;;;39.38;;
70825;SDS011;58446;41.490;22.098;2024-02-21T07:14:51;60.40;;;38.07;;
70825;SDS011;58446;41.490;22.098;2024-02-21T07:17:17;93.93;;;53.60;;
70825;SDS011;58446;41.490;22.098;2024-02-21T07:19:43;77.57;;;46.27;;
70825;SDS011;58446;41.490;22.098;2024-02-21T07:22:08;63.28;;;36.75;;
70825;SDS011;58446;41.490;22.098;2024-02-21T07:24:34;48.43;;;29.90;;
70825;SDS011;58446;41.490;22.098;2024-02-21T07:27:00;48.40;;;27.08;;
70825;SDS011;58446;41.490;22.098;2024-02-21T07:29:29;62.88;;;34.97;;
70825;SDS011;58446;41.490;22.098;2024-02-21T07:31:56;73.47;;;41.60;;
70825;SDS011;58446;41.490;22.098;2024-02-21T07:34:21;73.68;;;44.67;;
70825;SDS011;58446;41.490;22.098;2024-02-21T07:36:47;69.50;;;43.27;;
70825;SDS011;58446;41.490;22.098;2024-02-21T07:39:13;50.15;;;30.67;;
70825;SDS011;58446;41.490;22.098;2024-02-21T07:41:40;57.72;;;35.72;;
70825;SDS011;58446;41.490;22.098;2024-02-21T07:44:08;52.20;;;32.33;;
70825;SDS011;58446;41.490;22.098;2024-02-21T07:46:34;59.47;;;34.67;;
70825;SDS011;58446;41.490;22.098;2024-02-21T07:49:00;42.95;;;27.15;;
70825;SDS011;58446;41.490;22.098;2024-02-21T07:51:29;44.35;;;26.38;;
70825;SDS011;58446;41.490;22.098;2024-02-21T07:53:54;43.77;;;27.23;;
70825;SDS011;58446;41.490;22.098;2024-02-21T07:56:20;39.13;;;23.90;;
70825;SDS011;58446;41.490;22.098;2024-02-21T07:58:46;36.15;;;22.25;;
70825;SDS011;58446;41.490;22.098;2024-02-21T08:01:12;34.57;;;20.43;;
70825;SDS011;58446;41.490;22.098;2024-02-21T08:03:54;47.03;;;26.85;;
70825;SDS011;58446;41.490;22.098;2024-02-21T08:06:19;30.77;;;19.08;;
70825;SDS011;58446;41.490;22.098;2024-02-21T08:08:45;29.63;;;17.10;;
70825;SDS011;58446;41.490;22.098;2024-02-21T08:11:11;31.02;;;20.52;;
70825;SDS011;58446;41.490;22.098;2024-02-21T08:13:36;35.43;;;20.47;;
70825;SDS011;58446;41.490;22.098;2024-02-21T08:16:02;28.33;;;17.15;;
70825;SDS011;58446;41.490;22.098;2024-02-21T08:18:28;30.90;;;18.77;;
70825;SDS011;58446;41.490;22.098;2024-02-21T08:20:54;33.33;;;19.02;;
70825;SDS011;58446;41.490;22.098;2024-02-21T08:23:23;26.15;;;16.77;;
70825;SDS011;58446;41.490;22.098;2024-02-21T08:25:49;28.43;;;16.90;;
70825;SDS011;58446;41.490;22.098;2024-02-21T08:28:15;26.58;;;16.45;;
70825;SDS011;58446;41.490;22.098;2024-02-21T08:30:41;26.05;;;16.63;;
70825;SDS011;58446;41.490;22.098;2024-02-21T08:33:13;25.98;;;15.05;;
70825;SDS011;58446;41.490;22.098;2024-02-21T08:35:40;23.05;;;13.95;;
70825;SDS011;58446;41.490;22.098;2024-02-21T08:38:06;22.77;;;14.33;;
70825;SDS011;58446;41.490;22.098;2024-02-21T08:40:31;24.33;;;14.35;;
70825;SDS011;58446;41.490;22.098;2024-02-21T08:43:00;23.60;;;14.17;;
70825;SDS011;58446;41.490;22.098;2024-02-21T08:45:26;25.52;;;15.55;;
70825;SDS011;58446;41.490;22.098;2024-02-21T08:47:52;24.15;;;15.32;;
70825;SDS011;58446;41.490;22.098;2024-02-21T08:50:17;23.87;;;14.90;;
70825;SDS011;58446;41.490;22.098;2024-02-21T08:52:44;25.83;;;15.85;;
70825;SDS011;58446;41.490;22.098;2024-02-21T08:55:09;28.50;;;16.57;;
70825;SDS011;58446;41.490;22.098;2024-02-21T08:57:35;28.55;;;17.13;;
70825;SDS011;58446;41.490;22.098;2024-02-21T09:00:04;25.50;;;16.65;;
70825;SDS011;58446;41.490;22.098;2024-02-21T09:02:41;23.88;;;14.68;;
70825;SDS011;58446;41.490;22.098;2024-02-21T09:05:10;25.70;;;15.83;;
70825;SDS011;58446;41.490;22.098;2024-02-21T09:07:36;22.85;;;14.32;;
70825;SDS011;58446;41.490;22.098;2024-02-21T09:10:02;26.42;;;16.48;;
70825;SDS011;58446;41.490;22.098;2024-02-21T09:12:28;23.13;;;13.73;;
70825;SDS011;58446;41.490;22.098;2024-02-21T09:14:56;20.88;;;13.30;;
70825;SDS011;58446;41.490;22.098;2024-02-21T09:17:27;21.02;;;12.70;;
70825;SDS011;58446;41.490;22.098;2024-02-21T09:19:54;20.25;;;12.57;;
70825;SDS011;58446;41.490;22.098;2024-02-21T09:22:21;22.20;;;12.20;;
70825;SDS011;58446;41.490;22.098;2024-02-21T09:24:46;21.10;;;11.97;;
70825;SDS011;58446;41.490;22.098;2024-02-21T09:27:13;22.90;;;13.85;;
70825;SDS011;58446;41.490;22.098;2024-02-21T09:29:39;19.80;;;12.27;;
70825;SDS011;58446;41.490;22.098;2024-02-21T09:32:05;20.20;;;11.82;;
70825;SDS011;58446;41.490;22.098;2024-02-21T09:34:31;18.50;;;12.07;;
70825;SDS011;58446;41.490;22.098;2024-02-21T09:36:57;18.38;;;11.60;;
70825;SDS011;58446;41.490;22.098;2024-02-21T09:39:23;19.47;;;12.83;;
70825;SDS011;58446;41.490;22.098;2024-02-21T09:41:50;19.65;;;10.85;;
70825;SDS011;58446;41.490;22.098;2024-02-21T09:44:24;21.88;;;14.68;;
70825;SDS011;58446;41.490;22.098;2024-02-21T09:46:57;20.17;;;13.03;;
70825;SDS011;58446;41.490;22.098;2024-02-21T09:49:31;17.35;;;11.10;;
70825;SDS011;58446;41.490;22.098;2024-02-21T09:52:05;18.50;;;11.68;;
70825;SDS011;58446;41.490;22.098;2024-02-21T09:54:33;18.70;;;12.65;;
70825;SDS011;58446;41.490;22.098;2024-02-21T09:57:00;30.25;;;18.70;;
70825;SDS011;58446;41.490;22.098;2024-02-21T09:59:30;36.00;;;19.30;;
70825;SDS011;58446;41.490;22.098;2024-02-21T10:02:01;21.83;;;13.73;;
70825;SDS011;58446;41.490;22.098;2024-02-21T10:04:28;32.08;;;17.88;;
70825;SDS011;58446;41.490;22.098;2024-02-21T10:06:54;23.40;;;15.38;;
70825;SDS011;58446;41.490;22.098;2024-02-21T10:09:20;18.37;;;11.83;;
70825;SDS011;58446;41.490;22.098;2024-02-21T10:11:52;18.85;;;11.40;;
70825;SDS011;58446;41.490;22.098;2024-02-21T10:14:20;16.30;;;10.98;;
70825;SDS011;58446;41.490;22.098;2024-02-21T10:16:55;13.07;;;8.27;;
70825;SDS011;58446;41.490;22.098;2024-02-21T10:19:25;15.20;;;9.23;;
70825;SDS011;58446;41.490;22.098;2024-02-21T10:22:04;14.05;;;9.10;;
70825;SDS011;58446;41.490;22.098;2024-02-21T10:24:34;15.00;;;9.32;;
70825;SDS011;58446;41.490;22.098;2024-02-21T10:27:03;23.90;;;15.05;;
70825;SDS011;58446;41.490;22.098;2024-02-21T10:29:36;15.23;;;8.63;;
70825;SDS011;58446;41.490;22.098;2024-02-21T10:32:10;20.25;;;11.57;;
70825;SDS011;58446;41.490;22.098;2024-02-21T10:34:37;21.90;;;12.65;;
70825;SDS011;58446;41.490;22.098;2024-02-21T10:37:05;19.83;;;10.77;;
70825;SDS011;58446;41.490;22.098;2024-02-21T10:39:32;25.98;;;14.52;;
70825;SDS011;58446;41.490;22.098;2024-02-21T10:42:00;14.37;;;9.13;;
70825;SDS011;58446;41.490;22.098;2024-02-21T10:44:29;17.13;;;11.35;;
70825;SDS011;58446;41.490;22.098;2024-02-21T10:46:56;15.77;;;9.30;;
70825;SDS011;58446;41.490;22.098;2024-02-21T10:49:23;17.45;;;11.35;;
70825;SDS011;58446;41.490;22.098;2024-02-21T10:51:50;14.65;;;9.15;;
70825;SDS011;58446;41.490;22.098;2024-02-21T10:57:05;18.77;;;10.88;;
70825;SDS011;58446;41.490;22.098;2024-02-21T10:59:32;13.90;;;9.13;;
70825;SDS011;58446;41.490;22.098;2024-02-21T11:01:58;15.70;;;8.90;;
70825;SDS011;58446;41.490;22.098;2024-02-21T11:04:24;13.65;;;9.00;;
70825;SDS011;58446;41.490;22.098;2024-02-21T11:06:51;14.10;;;8.67;;
70825;SDS011;58446;41.490;22.098;2024-02-21T11:09:17;13.77;;;8.80;;
70825;SDS011;58446;41.490;22.098;2024-02-21T11:11:43;12.52;;;8.50;;
70825;SDS011;58446;41.490;22.098;2024-02-21T11:14:11;15.47;;;8.63;;
70825;SDS011;58446;41.490;22.098;2024-02-21T11:16:43;12.65;;;8.13;;
70825;SDS011;58446;41.490;22.098;2024-02-21T11:19:30;12.35;;;7.75;;
70825;SDS011;58446;41.490;22.098;2024-02-21T11:21:56;11.65;;;7.78;;
70825;SDS011;58446;41.490;22.098;2024-02-21T11:24:30;12.73;;;7.17;;
70825;SDS011;58446;41.490;22.098;2024-02-21T11:27:18;14.05;;;7.60;;
70825;SDS011;58446;41.490;22.098;2024-02-21T11:29:55;12.25;;;7.57;;
70825;SDS011;58446;41.490;22.098;2024-02-21T11:32:22;11.80;;;7.20;;
70825;SDS011;58446;41.490;22.098;2024-02-21T11:34:58;12.35;;;7.75;;
70825;SDS011;58446;41.490;22.098;2024-02-21T11:37:27;10.73;;;6.43;;
70825;SDS011;58446;41.490;22.098;2024-02-21T11:40:02;11.63;;;7.47;;
70825;SDS011;58446;41.490;22.098;2024-02-21T11:42:29;12.50;;;8.50;;
70825;SDS011;58446;41.490;22.098;2024-02-21T11:44:59;11.00;;;7.72;;
70825;SDS011;58446;41.490;22.098;2024-02-21T11:47:25;12.13;;;7.18;;
70825;SDS011;58446;41.490;22.098;2024-02-21T11:49:53;11.50;;;6.97;;
70825;SDS011;58446;41.490;22.098;2024-02-21T11:52:22;15.00;;;8.73;;
70825;SDS011;58446;41.490;22.098;2024-02-21T11:54:53;15.00;;;8.52;;
70825;SDS011;58446;41.490;22.098;2024-02-21T11:57:19;11.27;;;6.97;;
70825;SDS011;58446;41.490;22.098;2024-02-21T11:59:46;13.67;;;7.53;;
70825;SDS011;58446;41.490;22.098;2024-02-21T12:02:12;13.70;;;8.00;;
70825;SDS011;58446;41.490;22.098;2024-02-21T12:04:38;13.45;;;7.20;;
70825;SDS011;58446;41.490;22.098;2024-02-21T12:07:04;18.45;;;9.55;;
70825;SDS011;58446;41.490;22.098;2024-02-21T12:09:30;31.27;;;15.95;;
70825;SDS011;58446;41.490;22.098;2024-02-21T12:14:26;51.83;;;20.35;;
70825;SDS011;58446;41.490;22.098;2024-02-21T12:16:53;29.20;;;13.07;;
70825;SDS011;58446;41.490;22.098;2024-02-21T12:19:19;89.43;;;33.93;;
70825;SDS011;58446;41.490;22.098;2024-02-21T12:21:47;36.90;;;18.15;;
70825;SDS011;58446;41.490;22.098;2024-02-21T12:24:15;48.88;;;25.60;;
70825;SDS011;58446;41.490;22.098;2024-02-21T12:26:48;41.65;;;20.30;;
70825;SDS011;58446;41.490;22.098;2024-02-21T12:29:15;23.25;;;15.13;;
70825;SDS011;58446;41.490;22.098;2024-02-21T12:31:41;20.23;;;9.73;;
70825;SDS011;58446;41.490;22.098;2024-02-21T12:34:07;17.00;;;9.35;;
70825;SDS011;58446;41.490;22.098;2024-02-21T12:36:36;11.35;;;6.13;;
70825;SDS011;58446;41.490;22.098;2024-02-21T12:39:12;7.35;;;4.18;;
70825;SDS011;58446;41.490;22.098;2024-02-21T12:41:38;11.80;;;6.70;;
70825;SDS011;58446;41.490;22.098;2024-02-21T12:44:08;7.13;;;3.45;;
70825;SDS011;58446;41.490;22.098;2024-02-21T12:46:34;8.27;;;3.60;;
70825;SDS011;58446;41.490;22.098;2024-02-21T12:49:01;9.68;;;5.60;;
70825;SDS011;58446;41.490;22.098;2024-02-21T12:51:27;8.70;;;5.57;;
70825;SDS011;58446;41.490;22.098;2024-02-21T12:53:54;18.00;;;9.97;;
70825;SDS011;58446;41.490;22.098;2024-02-21T12:56:20;9.85;;;5.68;;
70825;SDS011;58446;41.490;22.098;2024-02-21T12:58:46;17.85;;;10.82;;
70825;SDS011;58446;41.490;22.098;2024-02-21T13:01:12;12.73;;;6.40;;
70825;SDS011;58446;41.490;22.098;2024-02-21T13:03:38;11.80;;;6.20;;
70825;SDS011;58446;41.490;22.098;2024-02-21T13:06:04;12.30;;;7.00;;
70825;SDS011;58446;41.490;22.098;2024-02-21T13:08:30;10.02;;;6.05;;
70825;SDS011;58446;41.490;22.098;2024-02-21T13:10:56;14.38;;;7.80;;
70825;SDS011;58446;41.490;22.098;2024-02-21T13:13:22;7.70;;;4.97;;
70825;SDS011;58446;41.490;22.098;2024-02-21T13:15:48;8.60;;;5.30;;
70825;SDS011;58446;41.490;22.098;2024-02-21T13:18:13;11.43;;;6.60;;
70825;SDS011;58446;41.490;22.098;2024-02-21T13:20:39;10.40;;;6.43;;
70825;SDS011;58446;41.490;22.098;2024-02-21T13:23:05;13.65;;;7.80;;
70825;SDS011;58446;41.490;22.098;2024-02-21T13:25:30;13.97;;;8.77;;
70825;SDS011;58446;41.490;22.098;2024-02-21T13:27:56;12.63;;;8.38;;
70825;SDS011;58446;41.490;22.098;2024-02-21T13:30:22;10.27;;;5.60;;
70825;SDS011;58446;41.490;22.098;2024-02-21T13:32:48;9.77;;;5.65;;
70825;SDS011;58446;41.490;22.098;2024-02-21T13:35:14;9.47;;;5.23;;
70825;SDS011;58446;41.490;22.098;2024-02-21T13:37:40;9.43;;;5.55;;
70825;SDS011;58446;41.490;22.098;2024-02-21T13:40:07;9.55;;;5.90;;
70825;SDS011;58446;41.490;22.098;2024-02-21T13:42:36;8.80;;;5.85;;
70825;SDS011;58446;41.490;22.098;2024-02-21T13:45:03;9.93;;;5.60;;
70825;SDS011;58446;41.490;22.098;2024-02-21T13:47:33;9.33;;;4.63;;
70825;SDS011;58446;41.490;22.098;2024-02-21T13:49:59;9.45;;;6.05;;
70825;SDS011;58446;41.490;22.098;2024-02-21T13:52:25;22.15;;;11.10;;
70825;SDS011;58446;41.490;22.098;2024-02-21T13:54:53;40.95;;;20.92;;
70825;SDS011;58446;41.490;22.098;2024-02-21T13:57:19;26.23;;;13.40;;
70825;SDS011;58446;41.490;22.098;2024-02-21T13:59:45;22.40;;;11.85;;
70825;SDS011;58446;41.490;22.098;2024-02-21T14:02:11;22.50;;;13.57;;
70825;SDS011;58446;41.490;22.098;2024-02-21T14:04:37;17.58;;;10.80;;
70825;SDS011;58446;41.490;22.098;2024-02-21T14:07:03;20.85;;;13.10;;
70825;SDS011;58446;41.490;22.098;2024-02-21T14:09:29;16.90;;;9.60;;
70825;SDS011;58446;41.490;22.098;2024-02-21T14:11:55;17.07;;;9.63;;
70825;SDS011;58446;41.490;22.098;2024-02-21T14:14:21;19.35;;;11.60;;